Time;durP1;ratioP1;P1;durP2;ratioP2;P2;SDS_P1;SDS_P2;PMS_P1;PMS_P2;Temp;Humidity;BMP_temperature;BMP_pressure;BME280_temperature;BME280_humidity;BME280_pressure;Samples;Min_cycle;Max_cycle;Signal;HPM_P1;HPM_P2
2022/11/26 00:00:58;;;;;;;23.00;6.57;;;8.20;88.20;;;;;;4986535;28;20031;-67
2022/11/26 00:03:24;;;;;;;23.23;6.90;;;8.20;88.00;;;;;;4991440;28;20018;-71
2022/11/26 00:05:52;;;;;;;20.60;6.33;;;8.20;87.80;;;;;;4992007;28;20068;-62
2022/11/26 00:08:32;;;;;;;26.10;6.65;;;8.20;87.90;;;;;;4994046;28;20462;-69
2022/11/26 00:10:58;;;;;;;25.90;6.10;;;8.10;88.80;;;;;;4992172;28;20026;-61
2022/11/26 00:13:28;;;;;;;23.90;7.05;;;8.10;88.50;;;;;;4991459;28;20026;-56
2022/11/26 00:15:55;;;;;;;25.38;6.07;;;8.10;88.30;;;;;;4988059;28;20609;-56
2022/11/26 00:18:27;;;;;;;19.80;6.63;;;8.10;88.00;;;;;;4989396;28;20038;-65
2022/11/26 00:20:55;;;;;;;25.42;6.47;;;8.20;88.50;;;;;;4989368;28;20134;-59
2022/11/26 00:23:26;;;;;;;20.10;5.75;;;8.10;87.50;;;;;;4995616;28;20030;-54
2022/11/26 00:25:58;;;;;;;20.70;6.85;;;8.10;87.40;;;;;;4992379;28;20022;-68
2022/11/26 00:28:29;;;;;;;20.92;6.47;;;8.10;87.70;;;;;;4998402;28;20033;-52
2022/11/26 00:30:58;;;;;;;19.80;6.03;;;8.00;87.40;;;;;;4995290;28;20399;-59
2022/11/26 00:33:25;;;;;;;23.35;6.00;;;8.00;87.50;;;;;;4994946;28;20025;-60
2022/11/26 00:36:11;;;;;;;23.85;5.85;;;8.00;87.30;;;;;;4996214;28;20418;-59
2022/11/26 00:38:37;;;;;;;24.20;8.02;;;8.00;87.40;;;;;;4999046;28;20033;-56
2022/11/26 00:41:03;;;;;;;24.67;7.53;;;7.90;87.30;;;;;;4996705;28;20034;-50
2022/11/26 00:43:28;;;;;;;16.03;6.57;;;7.90;87.90;;;;;;4996345;28;20479;-59
2022/11/26 00:45:54;;;;;;;22.50;7.47;;;7.90;87.40;;;;;;5001911;28;20084;-60
2022/11/26 00:48:19;;;;;;;23.83;6.97;;;7.90;87.50;;;;;;4991414;28;20030;-59
2022/11/26 00:50:50;;;;;;;19.00;6.33;;;7.90;87.10;;;;;;4998654;28;20037;-68
2022/11/26 00:53:19;;;;;;;21.90;5.70;;;7.90;87.10;;;;;;4998756;28;20030;-66
2022/11/26 00:55:47;;;;;;;15.10;5.65;;;7.90;86.90;;;;;;4994931;28;20070;-65
2022/11/26 00:58:28;;;;;;;18.77;6.45;;;7.90;85.90;;;;;;4989117;28;20031;-74
2022/11/26 01:00:56;;;;;;;26.17;6.68;;;7.70;86.10;;;;;;4988769;28;20041;-68
2022/11/26 01:03:22;;;;;;;19.85;6.22;;;7.60;86.40;;;;;;4998864;28;20026;-57
2022/11/26 01:05:50;;;;;;;23.45;7.18;;;7.60;86.00;;;;;;4997709;28;20026;-75
2022/11/26 01:08:27;;;;;;;18.75;5.88;;;7.50;85.90;;;;;;4992881;28;20029;-56
2022/11/26 01:10:53;;;;;;;16.35;6.63;;;7.50;86.50;;;;;;5001160;28;20080;-56
2022/11/26 01:13:19;;;;;;;16.10;5.67;;;7.50;86.10;;;;;;5000580;28;20054;-62
2022/11/26 01:15:45;;;;;;;15.07;5.50;;;7.40;85.40;;;;;;4993983;28;20042;-52
2022/11/26 01:18:17;;;;;;;16.48;5.90;;;7.50;85.40;;;;;;4993668;28;20035;-54
2022/11/26 01:20:43;;;;;;;19.83;6.88;;;7.40;85.50;;;;;;4992711;28;20031;-49
2022/11/26 01:23:11;;;;;;;23.00;8.00;;;7.50;85.80;;;;;;4995304;28;20033;-67
2022/11/26 01:25:37;;;;;;;19.80;7.10;;;7.40;85.70;;;;;;4997195;28;20045;-53
2022/11/26 01:28:03;;;;;;;25.15;6.32;;;7.30;86.20;;;;;;4995581;28;20034;-72
2022/11/26 01:30:31;;;;;;;12.77;6.05;;;7.30;85.80;;;;;;4994960;28;20030;-52
2022/11/26 01:32:58;;;;;;;24.42;8.90;;;7.10;85.60;;;;;;5000209;28;20033;-71
2022/11/26 01:35:24;;;;;;;17.58;5.65;;;7.10;86.20;;;;;;4991686;28;20065;-60
2022/11/26 01:37:49;;;;;;;23.47;7.77;;;7.10;86.10;;;;;;4991240;28;20100;-62
2022/11/26 01:40:27;;;;;;;23.67;7.10;;;7.10;86.50;;;;;;4988362;28;20022;-64
2022/11/26 01:43:26;;;;;;;17.33;6.13;;;7.10;87.30;;;;;;4997367;28;20021;-66
2022/11/26 01:45:53;;;;;;;16.00;6.75;;;7.10;87.00;;;;;;4987461;28;20454;-58
2022/11/26 01:48:31;;;;;;;16.98;6.25;;;7.10;86.70;;;;;;4995012;28;20402;-67
2022/11/26 01:51:01;;;;;;;16.08;6.53;;;7.10;86.00;;;;;;4995631;28;20096;-64
2022/11/26 01:53:57;;;;;;;21.52;6.93;;;7.00;85.70;;;;;;4996694;28;20034;-61
2022/11/26 01:56:37;;;;;;;22.33;7.53;;;6.90;86.00;;;;;;4993522;28;20414;-75
2022/11/26 01:59:21;;;;;;;21.42;7.40;;;6.80;86.90;;;;;;4997841;28;20027;-67
2022/11/26 02:01:50;;;;;;;18.27;7.72;;;6.80;85.90;;;;;;4994759;28;20056;-65
2022/11/26 02:04:40;;;;;;;24.13;6.85;;;6.90;86.20;;;;;;4998724;28;20014;-74
2022/11/26 02:07:06;;;;;;;23.52;8.00;;;6.80;85.90;;;;;;4992111;28;20607;-69
2022/11/26 02:09:32;;;;;;;19.30;6.57;;;6.80;86.50;;;;;;4998251;28;20022;-78
2022/11/26 02:11:57;;;;;;;19.60;6.95;;;6.70;85.90;;;;;;4998228;28;20045;-60
2022/11/26 02:14:27;;;;;;;25.40;7.10;;;6.70;86.10;;;;;;4994664;28;20035;-59
2022/11/26 02:17:06;;;;;;;22.50;8.48;;;6.70;86.50;;;;;;4978999;28;20546;-56
2022/11/26 02:20:26;;;;;;;20.25;6.47;;;6.60;86.70;;;;;;5002051;28;20511;-64
2022/11/26 02:23:36;;;;;;;25.90;8.27;;;6.70;86.10;;;;;;4971709;28;20549;-58
2022/11/26 02:26:14;;;;;;;15.95;7.50;;;6.70;85.80;;;;;;5002039;28;20089;-69
2022/11/26 02:29:21;;;;;;;16.05;6.50;;;6.60;86.30;;;;;;4996578;28;20774;-65
2022/11/26 02:31:53;;;;;;;24.25;7.00;;;6.60;85.50;;;;;;4997315;28;20045;-65
2022/11/26 02:34:30;;;;;;;22.50;7.50;;;6.50;86.50;;;;;;4998175;28;20038;-60
2022/11/26 02:37:00;;;;;;;15.52;6.38;;;6.60;86.30;;;;;;4991665;28;20087;-65
2022/11/26 02:39:28;;;;;;;22.58;6.32;;;6.50;86.10;;;;;;4996132;28;20521;-76
2022/11/26 02:41:57;;;;;;;18.08;6.38;;;6.40;86.30;;;;;;4998564;28;20100;-58
2022/11/26 02:44:27;;;;;;;14.40;6.32;;;6.50;86.10;;;;;;4994067;28;20137;-56
2022/11/26 02:47:03;;;;;;;17.42;5.38;;;6.40;86.40;;;;;;4996549;28;20084;-64
2022/11/26 02:49:30;;;;;;;23.60;6.53;;;6.40;86.20;;;;;;4998337;28;20048;-60
2022/11/26 02:52:00;;;;;;;15.80;6.57;;;6.40;85.70;;;;;;4988867;28;20141;-49
2022/11/26 02:54:28;;;;;;;13.00;5.35;;;6.30;86.80;;;;;;5008530;28;20037;-70
2022/11/26 02:56:54;;;;;;;12.30;5.50;;;6.40;86.70;;;;;;4992888;28;20042;-53
2022/11/26 02:59:20;;;;;;;20.05;5.93;;;6.30;86.40;;;;;;4993294;28;20031;-61
2022/11/26 03:02:02;;;;;;;20.23;7.20;;;6.40;86.90;;;;;;4994300;28;20038;-72
2022/11/26 03:04:34;;;;;;;22.20;7.55;;;6.30;87.90;;;;;;5001755;28;20487;-72
2022/11/26 03:07:04;;;;;;;21.27;7.63;;;6.30;88.30;;;;;;4986996;28;20149;-72
2022/11/26 03:10:02;;;;;;;19.08;6.45;;;6.40;87.70;;;;;;4995187;28;20155;-74
2022/11/26 03:12:29;;;;;;;19.85;7.00;;;6.40;86.90;;;;;;4985023;28;20038;-72
2022/11/26 03:14:55;;;;;;;20.08;6.10;;;6.40;87.30;;;;;;4995790;28;20466;-75
2022/11/26 03:17:21;;;;;;;23.40;7.95;;;6.40;86.70;;;;;;4988083;28;20045;-54
2022/11/26 03:19:46;;;;;;;25.58;6.72;;;6.40;87.20;;;;;;4999596;28;20034;-48
2022/11/26 03:22:14;;;;;;;23.13;7.53;;;6.40;86.30;;;;;;4988717;28;20026;-49
2022/11/26 03:24:40;;;;;;;18.90;7.00;;;6.40;86.20;;;;;;4996687;28;20026;-50
2022/11/26 03:27:05;;;;;;;17.08;7.13;;;6.30;87.00;;;;;;4990844;28;20042;-49
2022/11/26 03:29:31;;;;;;;30.73;7.75;;;6.30;86.50;;;;;;4988941;28;20022;-51
2022/11/26 03:31:57;;;;;;;21.87;7.00;;;6.30;86.10;;;;;;4992070;28;20545;-52
2022/11/26 03:34:23;;;;;;;16.07;5.80;;;6.20;85.20;;;;;;4996230;28;20045;-49
2022/11/26 03:36:49;;;;;;;16.38;6.03;;;6.20;85.40;;;;;;4991302;28;20339;-50
2022/11/26 03:39:15;;;;;;;18.60;7.10;;;6.20;86.00;;;;;;4986752;28;20469;-48
2022/11/26 03:41:43;;;;;;;16.42;5.82;;;6.20;85.90;;;;;;4989609;28;20037;-64
2022/11/26 03:44:09;;;;;;;19.48;6.35;;;6.20;85.90;;;;;;4994813;28;20104;-54
2022/11/26 03:46:35;;;;;;;18.20;6.60;;;6.10;85.90;;;;;;4995570;28;20114;-58
2022/11/26 03:49:00;;;;;;;24.40;6.60;;;6.00;86.00;;;;;;4998327;28;20116;-59
2022/11/26 03:51:26;;;;;;;17.50;7.60;;;6.00;86.40;;;;;;4988876;28;20030;-65
2022/11/26 03:53:51;;;;;;;15.47;6.53;;;6.00;86.00;;;;;;4996297;28;20096;-54
2022/11/26 03:56:17;;;;;;;16.83;7.00;;;5.90;86.40;;;;;;4992436;28;20034;-66
2022/11/26 03:58:43;;;;;;;22.57;8.10;;;6.00;86.80;;;;;;4984340;28;20025;-58
2022/11/26 04:01:10;;;;;;;21.63;9.30;;;5.80;86.70;;;;;;4995226;28;20119;-71
2022/11/26 04:03:36;;;;;;;22.35;7.45;;;5.80;87.10;;;;;;4997307;28;20030;-75
2022/11/26 04:06:02;;;;;;;24.88;9.02;;;5.90;87.10;;;;;;4993358;28;20065;-55
2022/11/26 04:08:27;;;;;;;26.08;8.95;;;6.00;87.10;;;;;;4992528;28;20036;-68
2022/11/26 04:10:53;;;;;;;22.53;7.83;;;5.90;87.10;;;;;;4994949;28;20037;-73
2022/11/26 04:13:18;;;;;;;20.67;7.63;;;5.90;87.10;;;;;;4996360;28;20038;-61
2022/11/26 04:15:44;;;;;;;21.67;8.57;;;5.90;87.10;;;;;;4991758;28;20039;-69
2022/11/26 04:18:10;;;;;;;21.60;7.85;;;5.90;87.60;;;;;;4999452;28;20088;-74
2022/11/26 04:20:35;;;;;;;14.87;8.60;;;5.90;87.60;;;;;;4997056;28;20084;-78
2022/11/26 04:23:01;;;;;;;19.93;8.20;;;5.80;87.70;;;;;;4996128;28;20439;-57
2022/11/26 04:25:27;;;;;;;22.80;8.27;;;5.90;88.60;;;;;;4993338;28;20022;-57
2022/11/26 04:27:52;;;;;;;28.57;8.63;;;5.90;88.40;;;;;;4993273;28;20093;-48
2022/11/26 04:30:18;;;;;;;28.63;9.80;;;6.00;88.60;;;;;;5000799;28;20394;-54
2022/11/26 04:32:43;;;;;;;24.13;8.73;;;6.00;88.90;;;;;;4999799;28;20461;-69
2022/11/26 04:35:09;;;;;;;25.50;8.60;;;6.10;89.20;;;;;;4995375;28;20048;-50
2022/11/26 04:37:35;;;;;;;27.97;8.80;;;6.10;88.10;;;;;;4993117;28;20411;-52
2022/11/26 04:40:00;;;;;;;23.10;8.77;;;6.20;88.50;;;;;;4996952;28;20023;-48
2022/11/26 04:42:26;;;;;;;26.00;8.67;;;6.30;88.90;;;;;;4995068;28;20080;-53
2022/11/26 04:44:52;;;;;;;21.70;8.93;;;6.30;89.00;;;;;;5000768;28;20026;-50
2022/11/26 04:47:17;;;;;;;30.73;9.83;;;6.30;89.00;;;;;;4992137;28;20518;-60
2022/11/26 04:49:43;;;;;;;21.93;9.07;;;6.40;89.30;;;;;;5002122;28;20265;-49
2022/11/26 04:52:09;;;;;;;26.47;8.80;;;6.40;89.10;;;;;;4995831;28;20030;-51
2022/11/26 04:54:34;;;;;;;33.47;8.93;;;6.40;89.70;;;;;;4997785;28;20457;-55
2022/11/26 04:57:00;;;;;;;20.70;9.00;;;6.50;88.40;;;;;;5001844;28;20033;-68
2022/11/26 04:59:26;;;;;;;33.30;10.13;;;6.50;89.70;;;;;;4999401;28;20034;-61
2022/11/26 05:01:51;;;;;;;38.77;9.50;;;6.50;90.30;;;;;;4995266;28;20100;-64
2022/11/26 05:04:17;;;;;;;29.33;9.70;;;6.50;90.40;;;;;;4993778;28;20033;-63
2022/11/26 05:06:42;;;;;;;29.63;10.03;;;6.60;90.40;;;;;;5000857;28;20099;-71
2022/11/26 05:09:08;;;;;;;28.00;8.63;;;6.60;90.40;;;;;;4991461;28;20285;-77
2022/11/26 05:11:34;;;;;;;28.17;9.23;;;6.60;90.50;;;;;;4996123;28;20022;-75
2022/11/26 05:13:59;;;;;;;33.77;7.70;;;6.70;90.20;;;;;;5000242;28;20061;-74
2022/11/26 05:16:25;;;;;;;28.33;7.83;;;6.70;89.70;;;;;;4989725;28;20035;-73
2022/11/26 05:18:50;;;;;;;21.87;7.57;;;6.80;89.70;;;;;;4994898;28;20033;-77
2022/11/26 05:21:16;;;;;;;21.50;8.67;;;6.70;88.90;;;;;;4996064;28;20512;-55
2022/11/26 05:23:42;;;;;;;29.40;9.37;;;6.70;88.20;;;;;;4986770;28;20124;-71
2022/11/26 05:26:07;;;;;;;20.83;7.43;;;6.60;88.00;;;;;;4988159;28;20510;-70
2022/11/26 05:28:33;;;;;;;23.77;6.70;;;6.60;88.60;;;;;;4992096;28;20415;-56
2022/11/26 05:31:02;;;;;;;18.50;7.67;;;6.60;88.70;;;;;;4991404;28;20037;-50
2022/11/26 05:33:29;;;;;;;19.95;7.47;;;6.50;87.80;;;;;;5005324;28;20030;-65
2022/11/26 05:35:54;;;;;;;20.88;7.55;;;6.60;88.10;;;;;;4992721;28;20038;-51
2022/11/26 05:38:20;;;;;;;23.33;7.80;;;6.50;87.70;;;;;;4984671;28;20057;-56
2022/11/26 05:40:46;;;;;;;26.42;8.75;;;6.60;87.70;;;;;;4994771;28;20113;-55
2022/11/26 05:43:12;;;;;;;22.00;7.37;;;6.50;88.20;;;;;;4988350;28;20538;-52
2022/11/26 05:45:37;;;;;;;13.63;6.87;;;6.50;88.50;;;;;;5000920;28;20027;-50
2022/11/26 05:48:03;;;;;;;28.20;10.27;;;6.50;87.80;;;;;;4988908;28;20044;-49
2022/11/26 05:50:29;;;;;;;27.67;11.20;;;6.50;88.30;;;;;;5003507;28;20034;-55
2022/11/26 05:52:54;;;;;;;27.73;12.07;;;6.50;88.60;;;;;;4996927;28;20060;-50
2022/11/26 05:55:20;;;;;;;29.70;9.03;;;6.50;88.20;;;;;;4989532;28;20039;-50
2022/11/26 05:57:46;;;;;;;21.47;7.83;;;6.60;87.80;;;;;;4993107;28;20042;-59
2022/11/26 06:00:12;;;;;;;20.43;8.33;;;6.40;88.00;;;;;;4991409;28;20071;-70
2022/11/26 06:02:38;;;;;;;20.55;7.85;;;6.40;88.10;;;;;;4999326;28;20438;-60
2022/11/26 06:05:04;;;;;;;20.65;8.38;;;6.40;87.90;;;;;;4996120;28;20038;-71
2022/11/26 06:07:30;;;;;;;;;;;6.40;87.40;;;;;;4993371;28;20028;-63
2022/11/26 06:09:56;;;;;;;13.63;6.68;;;6.40;87.70;;;;;;4997635;28;19996;-76
2022/11/26 06:12:21;;;;;;;15.83;7.50;;;6.40;87.70;;;;;;4986419;28;20018;-72
2022/11/26 06:14:47;;;;;;;16.13;7.40;;;6.40;87.90;;;;;;4992742;28;20574;-74
2022/11/26 06:17:12;;;;;;;26.70;9.00;;;6.30;88.10;;;;;;4996111;28;20410;-52
2022/11/26 06:19:38;;;;;;;33.93;10.87;;;6.30;89.40;;;;;;4989781;28;20022;-66
2022/11/26 06:22:04;;;;;;;28.13;7.63;;;6.40;90.10;;;;;;4990716;28;20026;-67
2022/11/26 06:24:29;;;;;;;20.47;6.70;;;6.50;90.40;;;;;;4989363;28;20280;-60
2022/11/26 06:26:55;;;;;;;31.23;7.63;;;6.50;90.30;;;;;;4993838;28;20061;-69
2022/11/26 06:29:21;;;;;;;29.43;7.97;;;6.50;90.80;;;;;;4994011;28;20097;-71
2022/11/26 06:31:46;;;;;;;27.43;7.67;;;6.50;90.60;;;;;;4993204;28;20478;-55
2022/11/26 06:34:14;;;;;;;19.70;7.27;;;6.50;90.60;;;;;;4995206;28;20137;-54
2022/11/26 06:36:40;;;;;;;28.67;7.68;;;6.50;90.60;;;;;;4989229;28;20037;-57
2022/11/26 06:39:06;;;;;;;35.53;9.40;;;6.60;90.40;;;;;;4986481;28;20053;-61
2022/11/26 06:41:32;;;;;;;36.40;9.63;;;6.60;90.70;;;;;;4999895;28;20050;-56
2022/11/26 06:43:58;;;;;;;22.20;7.13;;;6.50;90.40;;;;;;4991740;28;20022;-60
2022/11/26 06:46:24;;;;;;;21.25;6.63;;;6.60;90.30;;;;;;5002175;28;20026;-61
2022/11/26 06:48:50;;;;;;;21.53;7.13;;;6.60;90.20;;;;;;4991965;28;20031;-60
2022/11/26 06:51:16;;;;;;;24.63;7.40;;;6.60;90.30;;;;;;4990069;28;20065;-68
2022/11/26 06:53:42;;;;;;;21.70;7.18;;;6.60;90.20;;;;;;4989322;28;20022;-57
2022/11/26 06:56:13;;;;;;;23.85;8.23;;;6.60;90.20;;;;;;4986164;28;20125;-67
2022/11/26 06:58:38;;;;;;;27.10;7.88;;;6.60;90.20;;;;;;4982722;28;20037;-61
2022/11/26 07:01:08;;;;;;;17.10;7.50;;;6.60;90.30;;;;;;4994280;28;20549;-68
2022/11/26 07:03:34;;;;;;;23.00;7.90;;;6.60;90.30;;;;;;4986985;28;20026;-54
2022/11/26 07:05:59;;;;;;;17.83;7.40;;;6.60;90.40;;;;;;4993462;28;20034;-57
2022/11/26 07:08:25;;;;;;;20.07;7.63;;;6.60;90.40;;;;;;4994133;28;21086;-54
2022/11/26 07:10:51;;;;;;;26.23;8.40;;;6.60;90.50;;;;;;4992081;28;20040;-62
2022/11/26 07:13:16;;;;;;;39.80;9.47;;;6.50;90.60;;;;;;4993592;28;20124;-56
2022/11/26 07:15:42;;;;;;;23.87;9.23;;;6.40;90.90;;;;;;4994931;28;20110;-60
2022/11/26 07:18:07;;;;;;;25.17;9.97;;;6.40;90.90;;;;;;4995254;28;20438;-65
2022/11/26 07:20:35;;;;;;;20.93;8.80;;;6.40;90.90;;;;;;4993862;28;20050;-72
2022/11/26 07:23:01;;;;;;;29.40;8.40;;;6.50;90.80;;;;;;4985684;28;20088;-65
2022/11/26 07:25:28;;;;;;;19.02;7.53;;;6.50;90.70;;;;;;4989663;28;20497;-72
2022/11/26 07:27:53;;;;;;;;;;;6.40;90.70;;;;;;4985893;28;20045;-62
2022/11/26 07:30:19;;;;;;;28.83;7.60;;;6.40;90.80;;;;;;4990397;28;20715;-51
2022/11/26 07:32:45;;;;;;;19.90;7.77;;;6.40;90.70;;;;;;4991706;28;20402;-70
2022/11/26 07:35:10;;;;;;;19.00;7.80;;;6.50;90.60;;;;;;4986906;28;20038;-61
2022/11/26 07:37:36;;;;;;;22.80;9.20;;;6.50;90.60;;;;;;4987917;28;20591;-69
2022/11/26 07:40:03;;;;;;;31.97;9.70;;;6.40;90.80;;;;;;4990433;28;20030;-51
2022/11/26 07:42:31;;;;;;;30.45;9.93;;;6.40;90.90;;;;;;4987239;28;20117;-53
2022/11/26 07:44:56;;;;;;;40.95;11.55;;;6.50;91.00;;;;;;4987398;28;20109;-60
2022/11/26 07:47:22;;;;;;;44.60;12.60;;;6.50;91.20;;;;;;4992539;28;20496;-60
2022/11/26 07:49:48;;;;;;;49.27;14.23;;;6.40;91.40;;;;;;4992171;28;20400;-65
2022/11/26 07:52:13;;;;;;;39.67;13.60;;;6.50;91.40;;;;;;4991962;28;20027;-52
2022/11/26 07:54:39;;;;;;;26.40;11.67;;;6.50;91.50;;;;;;4993781;28;20034;-58
2022/11/26 07:57:04;;;;;;;32.67;10.87;;;6.60;91.30;;;;;;4995745;28;20034;-49
2022/11/26 07:59:30;;;;;;;26.97;10.83;;;6.60;91.20;;;;;;4987408;28;20035;-49
2022/11/26 08:01:56;;;;;;;31.40;10.17;;;6.60;91.20;;;;;;4987572;28;20154;-58
2022/11/26 08:04:21;;;;;;;27.27;9.07;;;6.60;91.20;;;;;;4990873;28;20041;-51
2022/11/26 08:06:47;;;;;;;34.73;10.93;;;6.60;91.10;;;;;;4987658;28;20025;-55
2022/11/26 08:09:12;;;;;;;29.37;9.87;;;6.60;91.20;;;;;;4988955;28;20114;-54
2022/11/26 08:11:38;;;;;;;24.77;9.47;;;6.60;91.20;;;;;;4990742;28;20039;-55
2022/11/26 08:14:06;;;;;;;18.37;9.00;;;6.70;91.00;;;;;;4989062;28;20498;-52
2022/11/26 08:16:33;;;;;;;23.42;9.43;;;6.70;90.90;;;;;;4996801;28;20035;-55
2022/11/26 08:19:04;;;;;;;29.58;10.07;;;6.80;90.70;;;;;;4994436;28;20538;-53
2022/11/26 08:21:30;;;;;;;29.63;8.77;;;6.90;90.70;;;;;;4995168;28;20369;-52
2022/11/26 08:23:55;;;;;;;26.90;8.40;;;6.90;90.70;;;;;;4985293;28;20100;-52
2022/11/26 08:26:21;;;;;;;29.30;9.17;;;6.90;90.60;;;;;;4984515;28;20039;-49
2022/11/26 08:28:47;;;;;;;20.40;8.70;;;7.00;90.50;;;;;;4983146;28;20030;-51
2022/11/26 08:31:14;;;;;;;18.40;7.50;;;7.00;90.60;;;;;;4980394;28;20069;-50
2022/11/26 08:33:40;;;;;;;29.92;9.15;;;7.00;90.50;;;;;;4992129;28;20026;-55
2022/11/26 08:36:07;;;;;;;17.07;7.77;;;7.00;90.60;;;;;;4990966;28;20080;-56
2022/11/26 08:38:33;;;;;;;28.63;8.90;;;6.90;90.60;;;;;;4996066;28;20035;-67
2022/11/26 08:41:04;;;;;;;16.90;7.25;;;7.00;90.80;;;;;;4988859;28;20029;-61
2022/11/26 08:43:30;;;;;;;23.73;8.00;;;7.10;90.60;;;;;;4986368;28;20026;-59
2022/11/26 08:45:58;;;;;;;28.27;9.85;;;7.10;90.50;;;;;;4994555;28;20405;-57
2022/11/26 08:48:26;;;;;;;23.13;8.05;;;7.20;90.50;;;;;;4994711;28;20034;-64
2022/11/26 08:50:57;;;;;;;25.88;9.30;;;7.20;90.50;;;;;;4996751;28;20071;-51
2022/11/26 08:53:23;;;;;;;17.42;6.80;;;7.20;90.90;;;;;;4990180;28;20022;-48
2022/11/26 08:55:48;;;;;;;25.63;11.23;;;7.10;90.30;;;;;;4989760;28;20034;-55
2022/11/26 08:58:14;;;;;;;25.07;7.80;;;7.10;90.40;;;;;;4989816;28;20038;-54
2022/11/26 09:00:40;;;;;;;24.90;9.57;;;7.20;90.40;;;;;;5000524;28;20026;-51
2022/11/26 09:03:07;;;;;;;23.23;9.18;;;7.30;90.20;;;;;;4988451;28;20093;-53
2022/11/26 09:05:32;;;;;;;21.15;7.93;;;7.30;90.20;;;;;;4995423;28;20122;-52
2022/11/26 09:07:58;;;;;;;23.77;7.87;;;7.30;90.30;;;;;;4992602;28;20116;-51
2022/11/26 09:10:24;;;;;;;30.80;8.40;;;7.30;90.30;;;;;;4992439;28;20069;-47
2022/11/26 09:12:49;;;;;;;22.73;10.30;;;7.20;90.30;;;;;;4991994;28;20070;-52
2022/11/26 09:15:15;;;;;;;21.93;8.87;;;7.20;90.60;;;;;;4995391;28;20039;-47
2022/11/26 09:17:40;;;;;;;21.77;8.23;;;7.00;90.70;;;;;;4993586;28;20026;-51
2022/11/26 09:20:07;;;;;;;23.33;7.40;;;7.00;90.50;;;;;;4989725;28;20034;-51
2022/11/26 09:22:34;;;;;;;26.80;9.70;;;7.00;90.50;;;;;;4986455;28;20026;-49
2022/11/26 09:24:59;;;;;;;24.92;9.48;;;7.10;90.50;;;;;;4997170;28;20041;-62
2022/11/26 09:27:25;;;;;;;16.47;7.57;;;7.10;90.40;;;;;;4985926;28;20034;-50
2022/11/26 09:29:50;;;;;;;21.63;9.67;;;7.10;90.50;;;;;;5001795;28;20056;-51
2022/11/26 09:32:16;;;;;;;27.00;9.25;;;7.20;90.50;;;;;;4992413;28;20041;-49
2022/11/26 09:34:42;;;;;;;24.00;8.70;;;7.20;90.30;;;;;;4995601;28;20172;-49
2022/11/26 09:37:07;;;;;;;25.73;10.40;;;7.30;90.30;;;;;;4987142;28;20039;-47
2022/11/26 09:39:33;;;;;;;21.58;8.82;;;7.40;90.20;;;;;;4992571;28;20514;-49
2022/11/26 09:42:07;;;;;;;17.50;9.00;;;7.40;90.10;;;;;;4996721;28;20534;-52
2022/11/26 09:44:43;;;;;;;15.82;7.20;;;7.50;90.00;;;;;;4993691;28;20030;-50
2022/11/26 09:47:31;;;;;;;18.77;6.38;;;7.50;90.00;;;;;;4989068;28;20034;-48
2022/11/26 09:50:05;;;;;;;15.63;6.97;;;7.50;90.00;;;;;;4989229;28;20037;-54
2022/11/26 09:52:42;;;;;;;20.08;8.05;;;7.50;90.10;;;;;;4990923;28;20043;-58
2022/11/26 09:55:13;;;;;;;16.27;6.95;;;7.50;89.50;;;;;;4984812;28;20034;-48
2022/11/26 09:57:43;;;;;;;21.13;7.50;;;7.60;90.00;;;;;;4993060;28;20038;-50
2022/11/26 10:00:22;;;;;;;22.60;8.00;;;7.50;89.00;;;;;;4994952;28;20033;-49
2022/11/26 10:02:51;;;;;;;32.78;16.27;;;7.60;89.40;;;;;;4992179;28;20053;-48
2022/11/26 10:05:17;;;;;;;16.15;6.72;;;7.50;89.40;;;;;;4992254;28;20030;-50
2022/11/26 10:07:58;;;;;;;19.57;8.23;;;7.60;90.10;;;;;;4992158;28;20022;-48
2022/11/26 10:10:59;;;;;;;19.05;8.10;;;7.60;89.30;;;;;;4991230;28;20494;-48
2022/11/26 10:13:45;;;;;;;22.60;10.52;;;7.50;88.60;;;;;;4977267;28;20038;-52
2022/11/26 10:16:50;;;;;;;18.05;6.30;;;7.60;89.70;;;;;;4986131;28;20057;-49
2022/11/26 10:19:24;;;;;;;16.45;5.97;;;7.60;89.30;;;;;;4985415;28;20081;-55
2022/11/26 10:21:59;;;;;;;17.15;7.07;;;7.70;89.40;;;;;;4992945;28;20058;-56
2022/11/26 10:24:39;;;;;;;15.57;6.03;;;7.80;88.70;;;;;;4991589;28;20100;-58
2022/11/26 10:27:12;;;;;;;11.07;6.53;;;7.80;88.80;;;;;;4998008;28;20022;-51
2022/11/26 10:29:45;;;;;;;21.20;8.95;;;7.90;88.50;;;;;;5000826;28;20057;-48
2022/11/26 10:32:22;;;;;;;17.65;9.15;;;7.80;87.60;;;;;;4994459;28;20543;-51
2022/11/26 10:34:53;;;;;;;22.20;7.90;;;7.80;86.90;;;;;;4988231;28;20038;-49
2022/11/26 10:37:21;;;;;;;19.02;8.75;;;7.80;87.40;;;;;;4995632;28;20038;-55
2022/11/26 10:39:47;;;;;;;35.28;15.43;;;7.80;87.30;;;;;;4993024;28;20026;-55
2022/11/26 10:42:19;;;;;;;41.00;19.73;;;7.80;87.50;;;;;;4999026;28;20022;-49
2022/11/26 10:44:46;;;;;;;22.75;12.57;;;7.90;88.10;;;;;;4993120;28;20034;-57
2022/11/26 10:47:20;;;;;;;16.67;7.70;;;7.90;88.00;;;;;;4991721;28;20446;-51
2022/11/26 10:49:47;;;;;;;28.10;16.35;;;7.90;88.00;;;;;;4992748;28;20034;-50
2022/11/26 10:52:24;;;;;;;13.80;6.32;;;7.90;87.30;;;;;;4998794;28;20033;-53
2022/11/26 10:55:21;;;;;;;15.15;7.75;;;7.90;87.50;;;;;;4991250;28;20026;-55
2022/11/26 10:57:52;;;;;;;19.95;9.15;;;7.90;87.20;;;;;;4990501;28;20049;-52
2022/11/26 11:00:53;;;;;;;9.38;6.10;;;7.90;87.60;;;;;;4990445;28;20045;-50
2022/11/26 11:03:31;;;;;;;14.93;5.32;;;8.00;87.20;;;;;;4988201;28;20088;-52
2022/11/26 11:06:17;;;;;;;14.65;5.25;;;8.00;87.30;;;;;;4989817;28;20382;-48
2022/11/26 11:08:42;;;;;;;9.73;4.38;;;8.10;87.20;;;;;;4993065;28;20026;-51
2022/11/26 11:11:23;;;;;;;11.27;5.17;;;8.00;86.60;;;;;;4995453;28;20148;-49
2022/11/26 11:13:49;;;;;;;11.77;4.50;;;8.00;86.90;;;;;;4986201;28;20022;-50
2022/11/26 11:16:26;;;;;;;7.63;4.70;;;8.00;86.90;;;;;;4991253;28;20042;-48
2022/11/26 11:19:00;;;;;;;11.10;5.13;;;8.00;86.90;;;;;;4996527;28;20034;-48
2022/11/26 11:21:34;;;;;;;10.68;4.90;;;8.00;87.40;;;;;;4995204;28;20034;-51
2022/11/26 11:24:19;;;;;;;16.38;5.13;;;8.10;87.40;;;;;;4994761;28;20620;-50
2022/11/26 11:26:47;;;;;;;18.42;5.60;;;7.90;86.60;;;;;;4987265;28;20030;-55
2022/11/26 11:29:28;;;;;;;12.63;5.03;;;8.00;87.30;;;;;;4992627;28;20049;-51
2022/11/26 11:31:57;;;;;;;12.23;5.63;;;8.10;86.70;;;;;;4983778;28;20038;-55
2022/11/26 11:34:29;;;;;;;11.60;5.18;;;8.10;87.20;;;;;;4994391;28;20034;-56
2022/11/26 11:36:59;;;;;;;11.98;5.70;;;8.20;87.00;;;;;;4998290;28;20080;-47
2022/11/26 11:39:33;;;;;;;17.67;5.45;;;8.10;86.50;;;;;;4990059;28;20019;-54
2022/11/26 11:42:04;;;;;;;12.40;5.65;;;8.20;87.20;;;;;;4998251;28;20530;-51
2022/11/26 11:44:58;;;;;;;14.68;6.10;;;8.20;86.20;;;;;;4989282;28;20022;-49
2022/11/26 11:47:41;;;;;;;13.90;5.43;;;8.20;86.70;;;;;;4984330;28;20418;-54
2022/11/26 11:50:17;;;;;;;14.30;6.28;;;8.30;86.20;;;;;;4994514;28;20041;-70
2022/11/26 11:53:01;;;;;;;11.50;5.47;;;8.30;86.10;;;;;;4987153;28;20030;-58
2022/11/26 11:55:58;;;;;;;11.98;4.65;;;8.30;85.50;;;;;;4994044;28;20038;-48
2022/11/26 11:58:24;;;;;;;11.05;5.00;;;8.30;85.70;;;;;;4987496;28;20057;-49
2022/11/26 12:01:01;;;;;;;12.80;5.10;;;8.30;85.90;;;;;;4984399;28;20034;-51
2022/11/26 12:03:50;;;;;;;12.77;5.22;;;8.20;85.60;;;;;;4988001;28;20277;-52
2022/11/26 12:06:27;;;;;;;9.23;4.90;;;8.20;85.90;;;;;;4984141;28;20037;-53
2022/11/26 12:09:26;;;;;;;18.57;8.63;;;8.30;86.00;;;;;;4988139;28;20117;-52
2022/11/26 12:12:19;;;;;;;15.70;5.53;;;8.30;86.20;;;;;;4990861;28;20038;-56
2022/11/26 12:14:51;;;;;;;18.15;5.75;;;8.40;85.00;;;;;;4985523;28;20034;-64
2022/11/26 12:17:42;;;;;;;12.60;5.50;;;8.30;83.80;;;;;;4983481;28;20039;-64
2022/11/26 12:20:26;;;;;;;13.63;5.22;;;8.30;84.20;;;;;;4980443;28;20057;-58
2022/11/26 12:22:58;;;;;;;16.05;5.30;;;8.30;83.60;;;;;;4990147;28;20102;-59
2022/11/26 12:25:34;;;;;;;8.93;4.65;;;8.40;84.50;;;;;;4991677;28;20041;-61
2022/11/26 12:28:14;;;;;;;14.57;4.95;;;8.40;84.80;;;;;;4986591;28;20085;-53
2022/11/26 12:30:47;;;;;;;16.25;5.65;;;8.40;83.30;;;;;;4995319;28;20289;-55
2022/11/26 12:33:19;;;;;;;18.83;6.20;;;8.30;83.10;;;;;;4992239;28;20128;-64
2022/11/26 12:35:55;;;;;;;14.80;5.30;;;8.30;82.90;;;;;;4983951;28;20053;-49
2022/11/26 12:38:28;;;;;;;11.63;4.95;;;8.30;84.10;;;;;;4999562;28;20019;-49
2022/11/26 12:41:03;;;;;;;20.08;10.45;;;8.30;84.50;;;;;;4992392;28;20088;-54
2022/11/26 12:43:38;;;;;;;18.58;7.78;;;8.30;84.30;;;;;;4994167;28;20023;-54
2022/11/26 12:46:15;;;;;;;21.88;9.05;;;8.20;83.60;;;;;;4997949;28;20038;-57
2022/11/26 12:48:58;;;;;;;21.75;8.45;;;8.20;84.30;;;;;;4989927;28;20022;-54
2022/11/26 12:51:41;;;;;;;17.77;6.72;;;8.20;83.60;;;;;;4994876;28;20558;-52
2022/11/26 12:54:22;;;;;;;23.17;9.27;;;8.20;84.00;;;;;;4988182;28;20022;-64
2022/11/26 12:57:09;;;;;;;11.77;5.07;;;8.40;85.00;;;;;;4994184;28;20030;-49
2022/11/26 12:59:45;;;;;;;13.57;4.70;;;8.40;83.60;;;;;;4997411;28;20073;-50
2022/11/26 13:02:26;;;;;;;13.00;6.55;;;8.50;84.30;;;;;;4995615;28;20030;-51